createdAt,value
2023-03-16T00:02:02.056Z,24.3
2023-03-16T00:07:55.975Z,24.3
2023-03-16T00:13:34.674Z,24.3
2023-03-16T00:19:28.742Z,24.3
2023-03-16T00:24:50.534Z,24.3
2023-03-16T00:30:13.389Z,24.3
2023-03-16T00:36:06.720Z,24.3
2023-03-16T00:41:59.388Z,24.2
2023-03-16T00:47:53.376Z,24.2
2023-03-16T00:53:15.495Z,24.2
2023-03-16T00:59:08.703Z,24.2
2023-03-16T01:04:46.665Z,24.2
2023-03-16T01:10:39.164Z,24.1
2023-03-16T01:15:45.029Z,24.1
2023-03-16T01:26:43.770Z,24.1
2023-03-16T01:32:21.337Z,24.1
2023-03-16T01:38:15.412Z,24.1
2023-03-16T01:44:07.307Z,24.1
2023-03-16T01:55:08.735Z,24.1
2023-03-16T02:01:01.657Z,24.1
2023-03-16T02:06:09.206Z,24.1
2023-03-16T02:11:47.428Z,24.3
2023-03-16T02:17:41.199Z,24.5
2023-03-16T02:23:18.728Z,25
2023-03-16T02:29:12.415Z,25.5
2023-03-16T02:35:05.754Z,26.1
2023-03-16T02:40:44.290Z,26.7
2023-03-16T02:46:22.259Z,27.3
2023-03-16T02:52:15.835Z,28
2023-03-16T02:58:08.349Z,28.7
2023-03-16T03:03:02.162Z,29.4
2023-03-16T03:08:54.650Z,30.1
2023-03-16T03:14:46.639Z,30.9
2023-03-16T03:20:39.509Z,31.6
2023-03-16T03:26:16.708Z,32.4
2023-03-16T03:32:09.361Z,33.1
2023-03-16T03:43:24.843Z,33.8
2023-03-16T03:48:47.121Z,33.9
2023-03-16T03:59:33.784Z,34.1
2023-03-16T04:05:27.535Z,34.1
2023-03-16T04:11:20.824Z,34.1
2023-03-16T04:16:58.808Z,34.1
2023-03-16T04:27:59.172Z,34.1
2023-03-16T04:33:21.038Z,34.1
2023-03-16T04:39:14.301Z,34.1
2023-03-16T04:44:51.990Z,34.1
2023-03-16T04:50:30.204Z,34.1
2023-03-16T04:56:07.663Z,34.1
2023-03-16T05:02:01.126Z,34.1
2023-03-16T05:08:00.157Z,34.1
2023-03-16T05:18:58.979Z,34.1
2023-03-16T05:24:51.900Z,34.1
2023-03-16T05:30:29.673Z,34
2023-03-16T05:35:55.446Z,34.1
2023-03-16T05:41:48.767Z,33.9
2023-03-16T05:47:27.461Z,33.9
2023-03-16T05:53:05.392Z,33.9
2023-03-16T05:58:59.246Z,33.8
2023-03-16T06:04:52.970Z,33.7
2023-03-16T06:10:47.047Z,33.6
2023-03-16T06:16:40.023Z,33.6
2023-03-16T06:22:31.448Z,33.5
2023-03-16T06:28:26.333Z,33.4
2023-03-16T06:34:19.486Z,33.4
2023-03-16T06:40:14.983Z,33.4
2023-03-16T06:45:55.721Z,33.3
2023-03-16T06:51:50.028Z,33.3
2023-03-16T06:57:27.102Z,33
2023-03-16T07:03:19.732Z,32.6
2023-03-16T07:09:13.128Z,32.9
2023-03-16T07:15:09.538Z,33.3
2023-03-16T07:21:03.925Z,33.3
2023-03-16T07:26:57.314Z,33.3
2023-03-16T07:33:12.035Z,33.3
2023-03-16T07:39:05.256Z,33.2
2023-03-16T07:44:27.335Z,33.2
2023-03-16T07:50:19.328Z,33.1
2023-03-16T07:55:58.793Z,33.1
2023-03-16T08:02:08.256Z,33
2023-03-16T08:08:01.968Z,33
2023-03-16T08:13:42.701Z,32.4
2023-03-16T08:19:35.993Z,32.3
2023-03-16T08:25:41.088Z,32.4
2023-03-16T08:31:35.142Z,32.4
2023-03-16T08:37:13.953Z,32.4
2023-03-16T08:42:47.615Z,32.4
2023-03-16T08:48:41.695Z,32.4
2023-03-16T08:54:18.872Z,32.4
2023-03-16T09:00:35.092Z,32.4
2023-03-16T09:06:29.328Z,32.3
2023-03-16T09:12:14.634Z,32.3
2023-03-16T09:18:08.285Z,32.2
2023-03-16T09:24:03.313Z,32.1
2023-03-16T09:30:00.140Z,32.1
2023-03-16T09:35:39.588Z,32.1
2023-03-16T09:41:36.418Z,31.9
2023-03-16T09:47:14.035Z,31.9
2023-03-16T09:52:44.828Z,31.8
2023-03-16T09:58:21.803Z,31.8
2023-03-16T10:03:59.828Z,31.7
2023-03-16T10:09:51.927Z,31.7
2023-03-16T10:15:44.810Z,31.6
2023-03-16T10:21:37.742Z,31.6
2023-03-16T10:27:29.889Z,31.6
2023-03-16T10:33:09.220Z,31.5
2023-03-16T10:38:48.115Z,31.5
2023-03-16T10:44:40.971Z,31.4
2023-03-16T10:50:36.534Z,31.3
2023-03-16T10:56:29.624Z,31.3
2023-03-16T11:02:22.524Z,31.3
2023-03-16T11:08:16.653Z,31.3
2023-03-16T11:14:22.967Z,31.2
2023-03-16T11:20:27.098Z,31.1
2023-03-16T11:26:19.855Z,31.1
2023-03-16T11:32:14.114Z,31.1
2023-03-16T11:38:24.831Z,31.1
2023-03-16T11:44:01.750Z,31.1
2023-03-16T11:49:54.673Z,31.1
2023-03-16T11:55:46.891Z,31
2023-03-16T12:01:33.562Z,30.9
2023-03-16T12:07:47.054Z,30.9
2023-03-16T12:13:24.472Z,30.8
2023-03-16T12:19:34.294Z,30.8
2023-03-16T12:25:27.707Z,30.8
2023-03-16T12:31:04.993Z,30.7
2023-03-16T12:36:58.086Z,30.7
2023-03-16T12:42:50.394Z,30.6
2023-03-16T12:48:27.622Z,30.6
2023-03-16T12:54:08.120Z,30.6
2023-03-16T13:05:09.197Z,30.5
2023-03-16T13:10:50.504Z,30.4
2023-03-16T13:16:29.113Z,30.4
2023-03-16T13:22:41.450Z,30.4
2023-03-16T13:28:19.604Z,30.3
2023-03-16T13:33:41.865Z,30.3
2023-03-16T13:38:48.878Z,30.3
2023-03-16T13:44:30.252Z,30.3
2023-03-16T13:50:07.742Z,30.2
2023-03-16T13:55:43.928Z,30.1
2023-03-16T14:01:22.145Z,30.1
2023-03-16T14:07:00.314Z,30.1
2023-03-16T14:12:57.180Z,30
2023-03-16T14:18:54.787Z,30.1
2023-03-16T14:24:55.344Z,30
2023-03-16T14:30:48.714Z,29.9
2023-03-16T14:42:21.335Z,29.8
2023-03-16T14:48:15.196Z,29.7
2023-03-16T14:53:52.432Z,29.6
2023-03-16T14:59:45.974Z,29.6
2023-03-16T15:05:56.891Z,29.6
2023-03-16T15:11:52.089Z,29.5
2023-03-16T15:17:29.656Z,29.4
2023-03-16T15:23:21.272Z,29.4
2023-03-16T15:28:58.968Z,29.4
2023-03-16T15:34:52.011Z,29.3
2023-03-16T15:40:29.842Z,29.3
2023-03-16T15:46:34.206Z,29.3
2023-03-16T15:52:34.270Z,29.2
2023-03-16T15:58:48.690Z,29.2
2023-03-16T16:04:26.744Z,29.1
2023-03-16T16:15:39.360Z,29.1
2023-03-16T16:21:46.266Z,29
2023-03-16T16:27:38.840Z,29
2023-03-16T16:33:01.602Z,28.9
2023-03-16T16:38:20.173Z,28.9
2023-03-16T16:59:15.014Z,28.7
2023-03-16T17:09:46.814Z,28.4
2023-03-16T17:21:03.630Z,28.3
2023-03-16T17:37:43.374Z,27.6
2023-03-16T17:43:26.771Z,27.4
2023-03-16T17:49:19.703Z,27.4
2023-03-16T17:55:12.877Z,27.3
2023-03-16T18:06:31.256Z,27.1
2023-03-16T18:12:24.658Z,27.1
2023-03-16T18:17:47.766Z,27.1
2023-03-16T18:23:10.227Z,27
2023-03-16T18:29:05.027Z,26.9
2023-03-16T18:34:58.702Z,26.9
2023-03-16T18:40:51.858Z,26.9
2023-03-16T18:46:29.317Z,26.9
2023-03-16T18:52:07.778Z,26.8
2023-03-16T19:03:22.634Z,26.3
2023-03-16T19:13:54.753Z,25.9
2023-03-16T19:19:32.658Z,25.8
2023-03-16T19:24:54.241Z,25.6
2023-03-16T19:30:48.249Z,25.5
2023-03-16T19:36:24.004Z,25.4
2023-03-16T19:42:01.822Z,25.3
2023-03-16T19:47:55.827Z,25.3
2023-03-16T19:53:47.831Z,25.3
2023-03-16T19:59:41.027Z,25.1
2023-03-16T20:05:34.738Z,25.1
2023-03-16T20:11:12.681Z,25
2023-03-16T20:27:50.385Z,25.1
2023-03-16T20:33:43.743Z,25.1
2023-03-16T20:39:22.212Z,25
2023-03-16T20:45:00.283Z,24.8
2023-03-16T20:50:37.708Z,24.9
2023-03-16T20:55:59.343Z,25.3
2023-03-16T21:01:52.849Z,26
2023-03-16T21:07:46.153Z,26.9
2023-03-16T21:19:10.660Z,28.4
2023-03-16T21:25:03.677Z,28.8
2023-03-16T21:30:57.274Z,29
2023-03-16T21:36:50.133Z,29.1
2023-03-16T21:42:44.989Z,29.2
2023-03-16T21:48:39.007Z,29.3
2023-03-16T21:59:56.758Z,29.3
2023-03-16T22:06:02.540Z,29.3
2023-03-16T22:11:55.463Z,29.3
2023-03-16T22:17:33.024Z,29.3
2023-03-16T22:23:26.627Z,29.3
2023-03-16T22:29:04.100Z,29.3
2023-03-16T22:34:40.912Z,29.3
2023-03-16T22:40:34.509Z,29.3
2023-03-16T22:46:26.220Z,29.3
2023-03-16T22:52:03.771Z,29.3
2023-03-16T22:57:57.816Z,29.3
2023-03-16T23:03:51.233Z,29.3
2023-03-16T23:09:44.512Z,29.3
2023-03-16T23:15:24.620Z,29.3
2023-03-16T23:21:30.860Z,29.3
2023-03-16T23:33:09.549Z,29.2
2023-03-16T23:38:46.713Z,29.2
2023-03-16T23:44:24.279Z,29.2
2023-03-16T23:50:02.124Z,29.2
2023-03-16T23:55:39.241Z,29.2
